Terminal Aerodrome Forecast
Issued by NWS

Home | Current Version | Previous Version | Text Only | Print | Product List | Glossary On
Versions: 1 2 3 4 5 6 7 8 9 10 11 12 13 14 15 16
000
FTUS43 KICT 291740
TAFRSL
TAF
KRSL 291740Z 2918/3018 02018G25KT P6SM VCSH OVC007
      TEMPO 2918/2920 SCT007 OVC012
     FM300300 01012G20KT 6SM -SHRA BR OVC008
     FM300900 36018KT P6SM -RASN OVC008
      TEMPO 3009/3013 OVC004
     FM301500 34018G26KT P6SM VCSH OVC015=

USA.gov is the U.S. government's official web portal to all federal, state and local government web resources and services.